Time;durP1;ratioP1;P1;durP2;ratioP2;P2;SDS_P1;SDS_P2;PMS_P1;PMS_P2;Temp;Humidity;BMP_temperature;BMP_pressure;BME280_temperature;BME280_humidity;BME280_pressure;Samples;Min_cycle;Max_cycle;Signal;HPM_P1;HPM_P2
2023/08/04 00:01:01;;;;;;;7.40;1.70;;;16.70;99.90;;;;;;4974553;28;20529;-78
2023/08/04 00:03:27;;;;;;;6.47;1.60;;;16.70;99.90;;;;;;4974166;28;20046;-78
2023/08/04 00:05:52;;;;;;;7.00;1.90;;;16.70;99.90;;;;;;4974138;28;20042;-78
2023/08/04 00:08:18;;;;;;;7.75;1.67;;;16.70;99.90;;;;;;4974260;28;20417;-78
2023/08/04 00:10:43;;;;;;;4.93;1.80;;;16.70;99.90;;;;;;4974350;28;20429;-78
2023/08/04 00:13:09;;;;;;;4.05;1.77;;;16.70;99.90;;;;;;4973738;28;20505;-78
2023/08/04 00:15:34;;;;;;;6.32;1.60;;;16.70;99.90;;;;;;4973815;28;20415;-78
2023/08/04 00:18:00;;;;;;;7.80;2.15;;;16.70;99.90;;;;;;4973039;28;20549;-78
2023/08/04 00:20:26;;;;;;;5.00;1.50;;;16.60;99.90;;;;;;4975083;28;20116;-78
2023/08/04 00:22:51;;;;;;;4.90;1.60;;;16.60;99.90;;;;;;4978534;28;20077;-78
2023/08/04 00:25:17;;;;;;;6.00;1.48;;;16.60;99.90;;;;;;4980524;28;20693;-78
2023/08/04 00:27:42;;;;;;;4.75;1.30;;;16.60;99.90;;;;;;4974155;28;20042;-78
2023/08/04 00:30:10;;;;;;;5.35;1.50;;;16.50;99.90;;;;;;4973691;28;20050;-78
2023/08/04 00:32:36;;;;;;;6.30;1.63;;;16.50;99.90;;;;;;4974026;28;20042;-78
2023/08/04 00:35:03;;;;;;;6.57;1.60;;;16.50;99.90;;;;;;4973778;28;20042;-78
2023/08/04 00:37:29;;;;;;;5.22;1.38;;;16.50;99.90;;;;;;4959940;28;20549;-79
2023/08/04 00:39:54;;;;;;;4.93;1.70;;;16.50;99.90;;;;;;4974963;28;20038;-79
2023/08/04 00:42:20;;;;;;;4.65;1.50;;;16.50;99.90;;;;;;4978580;28;20051;-78
2023/08/04 00:44:46;;;;;;;6.20;1.40;;;16.50;99.90;;;;;;4973771;28;20121;-78
2023/08/04 00:47:12;;;;;;;4.45;1.50;;;16.50;99.90;;;;;;4971676;28;20456;-79
2023/08/04 00:49:38;;;;;;;3.65;1.38;;;16.50;99.90;;;;;;4971465;28;20038;-78
2023/08/04 00:52:04;;;;;;;7.65;1.50;;;16.40;99.90;;;;;;4970001;28;20065;-79
2023/08/04 00:54:30;;;;;;;6.03;1.58;;;16.50;99.90;;;;;;4973052;28;20038;-78
2023/08/04 00:56:57;;;;;;;5.00;1.40;;;16.40;99.90;;;;;;4971619;28;20110;-78
2023/08/04 00:59:22;;;;;;;3.90;1.08;;;16.40;99.90;;;;;;4974167;28;20073;-78
2023/08/04 01:01:49;;;;;;;7.25;1.55;;;16.40;99.90;;;;;;4991034;28;20069;-78
2023/08/04 01:04:15;;;;;;;5.22;1.33;;;16.30;99.90;;;;;;4973473;28;20085;-78
2023/08/04 01:07:11;;;;;;;4.85;1.52;;;16.30;99.90;;;;;;4973535;28;20063;-79
2023/08/04 01:09:42;;;;;;;3.08;1.13;;;16.30;99.90;;;;;;4973695;28;20065;-78
2023/08/04 01:12:18;;;;;;;7.00;1.70;;;16.20;99.90;;;;;;4957521;28;20152;-78
2023/08/04 01:14:46;;;;;;;5.00;1.30;;;16.20;99.90;;;;;;4958464;28;20042;-78
2023/08/04 01:17:30;;;;;;;3.33;1.50;;;16.20;99.90;;;;;;4970990;28;20390;-78
2023/08/04 01:19:57;;;;;;;3.20;1.50;;;16.20;99.90;;;;;;4973713;28;20050;-78
2023/08/04 01:22:24;;;;;;;3.80;1.52;;;16.20;99.90;;;;;;4973397;28;20081;-78
2023/08/04 01:24:51;;;;;;;4.10;1.92;;;17.00;99.90;;;;;;4957672;28;20379;-78
2023/08/04 01:27:23;;;;;;;5.30;1.30;;;16.20;99.90;;;;;;4973546;28;20042;-78
2023/08/04 01:29:49;;;;;;;4.38;1.42;;;16.20;99.90;;;;;;4973841;28;20489;-78
2023/08/04 01:32:15;;;;;;;2.78;1.20;;;16.20;99.90;;;;;;4973201;28;20073;-78
2023/08/04 01:34:47;;;;;;;5.97;1.40;;;16.20;99.90;;;;;;4976824;28;20038;-78
2023/08/04 01:37:13;;;;;;;5.95;1.23;;;16.20;99.90;;;;;;4976644;28;20649;-78
2023/08/04 01:39:39;;;;;;;6.20;1.50;;;16.20;99.90;;;;;;4976803;28;20057;-78
2023/08/04 01:42:04;;;;;;;3.42;1.75;;;16.30;99.90;;;;;;4977021;28;20494;-78
2023/08/04 01:44:30;;;;;;;4.30;1.40;;;16.30;99.90;;;;;;4976862;28;20117;-78
2023/08/04 01:46:55;;;;;;;4.60;1.40;;;16.20;99.90;;;;;;4976364;28;20042;-78
2023/08/04 01:49:21;;;;;;;7.18;1.25;;;16.20;99.90;;;;;;4959143;28;20046;-78
2023/08/04 01:51:46;;;;;;;4.80;1.55;;;16.20;99.90;;;;;;4980442;28;20523;-78
2023/08/04 01:54:12;;;;;;;4.90;1.75;;;16.20;99.90;;;;;;4976620;28;20097;-78
2023/08/04 01:56:37;;;;;;;4.63;1.48;;;16.20;99.90;;;;;;4976106;28;20044;-79
2023/08/04 01:59:03;;;;;;;4.63;1.30;;;16.20;99.90;;;;;;4967226;28;20042;-78
2023/08/04 02:01:29;;;;;;;7.55;1.40;;;16.10;99.90;;;;;;4972381;28;20090;-78
2023/08/04 02:03:54;;;;;;;7.03;1.48;;;16.10;99.90;;;;;;4964630;28;20609;-79
2023/08/04 02:06:19;;;;;;;5.13;1.42;;;16.10;99.90;;;;;;4975445;28;20045;-78
2023/08/04 02:08:46;;;;;;;6.22;1.30;;;16.10;99.90;;;;;;4955772;28;20105;-78
2023/08/04 02:11:11;;;;;;;4.63;1.55;;;16.00;99.90;;;;;;4974625;28;20034;-78
2023/08/04 02:13:37;;;;;;;3.80;1.25;;;16.00;99.90;;;;;;4976218;28;20049;-78
2023/08/04 02:16:03;;;;;;;3.80;1.50;;;16.00;99.90;;;;;;4993304;28;20038;-78
2023/08/04 02:18:28;;;;;;;4.32;1.30;;;15.90;99.90;;;;;;4978702;28;20057;-79
2023/08/04 02:20:54;;;;;;;4.45;1.52;;;15.90;99.90;;;;;;4976594;28;20038;-78
2023/08/04 02:23:19;;;;;;;6.88;1.55;;;15.90;99.90;;;;;;4974700;28;20046;-78
2023/08/04 02:25:45;;;;;;;5.25;1.38;;;15.80;99.90;;;;;;4975574;28;20041;-79
2023/08/04 02:28:10;;;;;;;5.43;1.38;;;15.80;99.90;;;;;;4974649;28;20039;-79
2023/08/04 02:30:36;;;;;;;7.10;1.60;;;15.80;99.90;;;;;;4975067;28;20038;-79
2023/08/04 02:33:01;;;;;;;3.78;1.27;;;15.80;99.90;;;;;;4976872;28;20454;-79
2023/08/04 02:35:27;;;;;;;4.95;1.52;;;15.90;99.90;;;;;;4974092;28;20042;-79
2023/08/04 02:37:52;;;;;;;3.78;1.58;;;15.90;99.90;;;;;;4974441;28;20125;-78
2023/08/04 02:40:19;;;;;;;6.93;1.65;;;15.90;99.90;;;;;;4958657;28;20061;-78
2023/08/04 02:42:44;;;;;;;6.18;1.77;;;15.90;99.90;;;;;;4971188;28;20387;-79
2023/08/04 02:45:10;;;;;;;3.45;1.67;;;15.90;99.90;;;;;;4972739;28;20104;-77
2023/08/04 02:47:36;;;;;;;3.55;1.30;;;15.90;99.90;;;;;;4975125;28;20122;-78
2023/08/04 02:50:04;;;;;;;5.95;1.50;;;15.80;99.90;;;;;;4972484;28;20510;-80
2023/08/04 02:52:29;;;;;;;4.30;1.35;;;15.80;99.90;;;;;;4972546;28;20045;-78
2023/08/04 02:54:55;;;;;;;3.28;1.27;;;15.70;99.90;;;;;;4973263;28;20038;-78
2023/08/04 02:57:20;;;;;;;5.03;1.40;;;15.70;99.90;;;;;;4971542;28;20038;-78
2023/08/04 02:59:46;;;;;;;3.67;1.63;;;15.60;99.90;;;;;;4973628;28;20121;-78
2023/08/04 03:02:11;;;;;;;5.90;1.70;;;15.70;99.90;;;;;;4973697;28;20386;-78
2023/08/04 03:04:38;;;;;;;3.95;1.65;;;15.60;99.90;;;;;;4975017;28;20038;-78
2023/08/04 03:07:04;;;;;;;5.22;2.10;;;15.80;99.90;;;;;;4956204;28;20106;-78
2023/08/04 03:09:30;;;;;;;3.97;1.55;;;15.60;99.90;;;;;;4973411;28;20039;-78
2023/08/04 03:11:55;;;;;;;6.55;2.10;;;15.60;99.90;;;;;;4974485;28;20541;-78
2023/08/04 03:14:21;;;;;;;5.53;2.15;;;15.50;99.90;;;;;;4972958;28;20057;-78
2023/08/04 03:16:46;;;;;;;5.32;2.10;;;15.50;99.90;;;;;;4972697;28;20046;-78
2023/08/04 03:19:12;;;;;;;4.47;1.63;;;15.50;99.90;;;;;;4973479;28;20045;-78
2023/08/04 03:21:37;;;;;;;4.63;1.75;;;15.50;99.90;;;;;;4974223;28;20120;-78
2023/08/04 03:24:03;;;;;;;5.63;1.58;;;15.50;99.90;;;;;;4972442;28;20457;-78
2023/08/04 03:26:28;;;;;;;3.85;1.25;;;15.50;99.90;;;;;;4971277;28;20496;-78
2023/08/04 03:28:54;;;;;;;3.95;1.50;;;15.40;99.90;;;;;;4971970;28;20080;-78
2023/08/04 03:31:19;;;;;;;4.43;1.70;;;15.40;99.90;;;;;;4964578;28;20050;-78
2023/08/04 03:33:45;;;;;;;5.07;1.95;;;15.40;99.90;;;;;;4973110;28;20413;-78
2023/08/04 03:36:10;;;;;;;7.88;1.80;;;15.40;99.90;;;;;;4982404;28;20034;-78
2023/08/04 03:38:36;;;;;;;3.20;1.73;;;15.40;99.90;;;;;;4972921;28;20038;-78
2023/08/04 03:41:01;;;;;;;7.65;1.58;;;15.40;99.90;;;;;;4973126;28;20042;-78
2023/08/04 03:43:27;;;;;;;4.07;1.30;;;15.30;99.90;;;;;;4973595;28;20042;-78
2023/08/04 03:45:52;;;;;;;4.57;1.67;;;15.30;99.90;;;;;;4972584;28;20034;-78
2023/08/04 03:48:18;;;;;;;4.63;1.42;;;15.30;99.90;;;;;;4974055;28;20034;-79
2023/08/04 03:50:44;;;;;;;4.45;1.40;;;15.20;99.90;;;;;;4957539;28;20053;-79
2023/08/04 03:53:09;;;;;;;4.82;1.20;;;15.20;99.90;;;;;;4972777;28;20107;-78
2023/08/04 03:55:35;;;;;;;6.60;1.42;;;15.30;99.90;;;;;;4972273;28;20049;-78
2023/08/04 03:58:00;;;;;;;5.13;1.35;;;15.30;99.90;;;;;;4973235;28;20061;-78
2023/08/04 04:00:26;;;;;;;3.97;1.40;;;15.30;99.90;;;;;;4971840;28;20030;-78
2023/08/04 04:02:51;;;;;;;4.38;1.50;;;15.30;99.90;;;;;;4973596;28;20065;-78
2023/08/04 04:05:17;;;;;;;5.13;1.33;;;15.30;99.90;;;;;;4972389;28;20150;-78
2023/08/04 04:07:42;;;;;;;3.25;1.40;;;15.40;99.90;;;;;;4970999;28;20038;-78
2023/08/04 04:10:08;;;;;;;4.78;1.60;;;15.40;99.90;;;;;;4971123;28;20047;-79
2023/08/04 04:12:35;;;;;;;4.82;1.55;;;15.40;99.90;;;;;;4974677;28;20041;-78
2023/08/04 04:15:05;;;;;;;4.22;1.70;;;15.40;99.90;;;;;;4973180;28;20082;-79
2023/08/04 04:17:30;;;;;;;5.53;1.75;;;15.40;99.90;;;;;;4972022;28;20065;-77
2023/08/04 04:19:56;;;;;;;4.20;1.40;;;15.40;99.90;;;;;;4970735;28;20077;-78
2023/08/04 04:22:21;;;;;;;5.07;1.90;;;15.40;99.90;;;;;;4972677;28;20387;-78
2023/08/04 04:24:47;;;;;;;9.27;2.10;;;15.40;99.90;;;;;;4973363;28;20042;-78
2023/08/04 04:27:13;;;;;;;4.63;1.80;;;15.40;99.90;;;;;;4971673;28;20052;-78
2023/08/04 04:29:39;;;;;;;4.93;1.80;;;15.40;99.90;;;;;;4973194;28;20041;-78
2023/08/04 04:32:05;;;;;;;4.47;1.70;;;15.40;99.90;;;;;;4972231;28;20042;-78
2023/08/04 04:34:31;;;;;;;4.38;1.70;;;15.30;99.90;;;;;;4973657;28;20039;-78
2023/08/04 04:36:58;;;;;;;3.28;1.90;;;15.20;99.90;;;;;;4968918;28;20129;-77
2023/08/04 04:39:24;;;;;;;5.55;1.70;;;15.20;99.90;;;;;;4976284;28;20042;-77
2023/08/04 04:41:50;;;;;;;3.88;1.90;;;15.20;99.90;;;;;;4976118;28;20057;-77
2023/08/04 04:44:16;;;;;;;2.42;1.90;;;15.20;99.90;;;;;;4972719;28;20439;-78
2023/08/04 04:46:41;;;;;;;3.10;1.80;;;15.20;99.90;;;;;;4991614;28;20038;-78
2023/08/04 04:49:07;;;;;;;3.55;1.90;;;15.20;99.90;;;;;;4954705;28;20093;-78
2023/08/04 04:51:32;;;;;;;5.05;1.85;;;15.20;99.90;;;;;;4973911;28;20461;-78
2023/08/04 04:53:58;;;;;;;6.97;1.85;;;15.30;99.90;;;;;;4974014;28;20553;-78
2023/08/04 04:56:24;;;;;;;3.22;1.77;;;15.30;99.90;;;;;;4973503;28;20054;-78
2023/08/04 04:58:50;;;;;;;6.07;1.75;;;15.30;99.90;;;;;;4973823;28;20125;-78
2023/08/04 05:01:16;;;;;;;7.78;2.22;;;15.40;99.90;;;;;;4972267;28;20198;-78
2023/08/04 05:03:41;;;;;;;3.95;1.60;;;15.40;99.90;;;;;;4972560;28;20060;-78
2023/08/04 05:06:07;;;;;;;2.78;1.70;;;15.50;99.90;;;;;;4954540;28;20070;-78
2023/08/04 05:08:33;;;;;;;2.97;1.88;;;15.50;99.90;;;;;;4961142;28;20034;-78
2023/08/04 05:10:58;;;;;;;5.28;2.10;;;15.50;99.90;;;;;;4977498;28;20089;-78
2023/08/04 05:13:24;;;;;;;5.97;1.90;;;15.60;99.90;;;;;;4977263;28;20046;-78
2023/08/04 05:15:49;;;;;;;3.70;2.33;;;15.70;99.90;;;;;;4977095;28;20046;-78
2023/08/04 05:18:16;;;;;;;5.43;2.00;;;15.70;99.90;;;;;;4976941;28;20061;-78
2023/08/04 05:20:45;;;;;;;4.85;2.20;;;15.70;99.90;;;;;;4977046;28;20058;-78
2023/08/04 05:23:11;;;;;;;5.20;1.90;;;15.70;99.90;;;;;;4977115;28;20045;-77
2023/08/04 05:25:36;;;;;;;4.35;2.10;;;15.80;99.90;;;;;;4961100;28;20050;-78
2023/08/04 05:28:28;;;;;;;6.22;1.98;;;15.80;99.90;;;;;;4977484;28;20035;-78
2023/08/04 05:30:55;;;;;;;4.20;2.05;;;15.90;99.90;;;;;;4972816;28;20038;-78
2023/08/04 05:33:21;;;;;;;4.07;1.90;;;15.90;99.90;;;;;;4975557;28;20406;-78
2023/08/04 05:35:47;;;;;;;3.75;2.22;;;15.90;99.90;;;;;;4976779;28;20050;-78
2023/08/04 05:38:14;;;;;;;4.82;2.67;;;16.00;99.90;;;;;;4977137;28;20406;-78
2023/08/04 05:40:43;;;;;;;3.80;2.30;;;16.00;99.90;;;;;;4973652;28;20057;-78
2023/08/04 05:43:09;;;;;;;4.18;2.17;;;16.00;99.90;;;;;;4973023;28;20043;-78
2023/08/04 05:45:36;;;;;;;3.13;1.95;;;16.10;99.90;;;;;;4983785;28;20038;-78
2023/08/04 05:48:01;;;;;;;3.70;1.92;;;16.10;99.90;;;;;;4962541;28;20061;-78
2023/08/04 05:50:27;;;;;;;5.18;1.73;;;16.10;99.90;;;;;;4975657;28;20034;-78
2023/08/04 05:52:53;;;;;;;4.13;1.90;;;16.10;99.90;;;;;;4976164;28;20109;-78
2023/08/04 05:55:20;;;;;;;5.57;1.70;;;16.20;99.90;;;;;;4974663;28;20038;-78
2023/08/04 05:57:45;;;;;;;3.22;1.90;;;16.20;99.90;;;;;;4976937;28;20095;-78
2023/08/04 06:00:11;;;;;;;6.97;1.92;;;16.20;99.90;;;;;;4978840;28;20607;-78
2023/08/04 06:02:38;;;;;;;6.32;1.70;;;16.30;99.90;;;;;;4976095;28;20046;-78
2023/08/04 06:05:04;;;;;;;4.15;1.80;;;16.30;99.90;;;;;;4976268;28;20160;-78
2023/08/04 06:07:29;;;;;;;9.65;2.00;;;16.30;99.90;;;;;;4976209;28;20093;-78
2023/08/04 06:09:55;;;;;;;4.45;2.03;;;16.30;99.90;;;;;;4976046;28;20035;-78
2023/08/04 06:12:20;;;;;;;4.78;1.80;;;16.30;99.90;;;;;;4976530;28;20418;-78
2023/08/04 06:14:46;;;;;;;4.13;2.03;;;16.40;99.90;;;;;;4979933;28;20057;-78
2023/08/04 06:17:12;;;;;;;4.38;1.83;;;16.40;99.90;;;;;;4976456;28;20502;-78
2023/08/04 06:19:44;;;;;;;4.25;2.00;;;16.40;99.90;;;;;;4976361;28;20130;-78
2023/08/04 06:22:10;;;;;;;4.13;1.85;;;16.40;99.90;;;;;;4976895;28;20506;-79
2023/08/04 06:24:35;;;;;;;3.67;1.80;;;16.50;99.90;;;;;;4959822;28;20034;-78
2023/08/04 06:27:03;;;;;;;4.15;2.00;;;16.50;99.90;;;;;;4975890;28;20038;-79
2023/08/04 06:29:29;;;;;;;4.65;1.98;;;16.60;99.90;;;;;;4976854;28;20089;-79
2023/08/04 06:31:55;;;;;;;3.92;2.08;;;16.60;99.90;;;;;;4976708;28;20046;-78
2023/08/04 06:34:20;;;;;;;4.97;2.05;;;16.70;99.90;;;;;;4976472;28;20134;-78
2023/08/04 06:36:46;;;;;;;5.38;1.63;;;16.80;99.90;;;;;;4976286;28;20058;-78
2023/08/04 06:39:12;;;;;;;6.20;2.13;;;16.80;99.90;;;;;;4975493;28;20073;-78
2023/08/04 06:41:37;;;;;;;4.88;2.00;;;16.90;99.90;;;;;;4977399;28;20084;-78
2023/08/04 06:44:03;;;;;;;6.20;2.00;;;17.00;99.90;;;;;;4976524;28;20113;-78
2023/08/04 06:46:29;;;;;;;5.10;2.15;;;17.10;99.90;;;;;;4975726;28;20034;-78
2023/08/04 06:48:54;;;;;;;4.40;2.03;;;17.20;99.90;;;;;;4975872;28;20038;-78
2023/08/04 06:51:20;;;;;;;6.85;2.40;;;17.20;99.90;;;;;;4979818;28;20038;-78
2023/08/04 06:53:45;;;;;;;5.97;2.08;;;17.30;99.90;;;;;;4975800;28;20509;-78
2023/08/04 06:56:11;;;;;;;6.65;2.30;;;17.40;99.90;;;;;;4975563;28;20037;-78
2023/08/04 06:58:36;;;;;;;6.80;2.45;;;17.30;99.90;;;;;;4956232;28;20037;-78
2023/08/04 07:01:02;;;;;;;7.25;2.08;;;17.40;99.90;;;;;;4971747;28;20169;-78
2023/08/04 07:03:28;;;;;;;4.43;2.03;;;17.50;99.90;;;;;;4974955;28;20415;-78
2023/08/04 07:05:53;;;;;;;4.35;1.98;;;17.80;99.90;;;;;;4972541;28;20037;-78
2023/08/04 07:08:19;;;;;;;5.97;2.30;;;17.60;99.90;;;;;;4973358;28;20526;-78
2023/08/04 07:10:45;;;;;;;5.90;2.25;;;17.60;99.90;;;;;;4973842;28;20034;-78
2023/08/04 07:13:10;;;;;;;4.40;2.30;;;17.60;99.90;;;;;;4975687;28;20057;-78
2023/08/04 07:15:36;;;;;;;6.88;2.08;;;17.70;99.90;;;;;;4978469;28;20038;-78
2023/08/04 07:18:02;;;;;;;7.90;2.40;;;17.70;99.90;;;;;;4975048;28;20041;-78
2023/08/04 07:20:28;;;;;;;5.13;2.30;;;17.70;99.90;;;;;;4975067;28;20124;-78
2023/08/04 07:22:54;;;;;;;5.78;2.30;;;17.70;99.90;;;;;;4974636;28;20066;-78
2023/08/04 07:25:20;;;;;;;4.28;2.00;;;17.80;99.90;;;;;;4974729;28;20038;-78
2023/08/04 07:27:46;;;;;;;5.30;1.92;;;17.90;99.90;;;;;;4975851;28;20042;-78
2023/08/04 07:30:13;;;;;;;4.38;2.22;;;18.00;99.90;;;;;;4973351;28;20031;-77
2023/08/04 07:32:39;;;;;;;5.93;2.10;;;18.20;99.90;;;;;;4957779;28;20035;-78
2023/08/04 07:35:05;;;;;;;10.13;2.22;;;18.40;99.90;;;;;;4973379;28;20413;-78
2023/08/04 07:37:31;;;;;;;6.53;1.95;;;18.50;99.90;;;;;;4971990;28;20042;-77
2023/08/04 07:39:57;;;;;;;10.40;2.30;;;18.60;99.90;;;;;;4974752;28;20149;-78
2023/08/04 07:42:22;;;;;;;6.63;1.70;;;18.60;99.90;;;;;;4972826;28;20042;-77
2023/08/04 07:44:48;;;;;;;5.70;1.98;;;18.70;99.90;;;;;;4970533;28;20387;-77
2023/08/04 07:47:13;;;;;;;3.70;1.90;;;18.70;99.90;;;;;;4954038;28;20045;-77
2023/08/04 07:49:39;;;;;;;3.03;1.63;;;18.60;99.90;;;;;;4990040;28;20034;-77
2023/08/04 07:52:05;;;;;;;6.15;1.88;;;18.60;99.90;;;;;;4972448;28;20042;-78
2023/08/04 07:54:30;;;;;;;6.07;1.92;;;18.60;99.90;;;;;;4972841;28;20497;-78
2023/08/04 07:56:56;;;;;;;4.50;2.08;;;18.70;99.90;;;;;;4972772;28;20046;-77
2023/08/04 07:59:21;;;;;;;6.97;2.03;;;18.70;99.90;;;;;;4976011;28;20050;-78
2023/08/04 08:01:47;;;;;;;4.60;1.95;;;18.80;99.90;;;;;;4972774;28;20042;-78
2023/08/04 08:04:13;;;;;;;5.95;2.10;;;18.80;99.90;;;;;;4958070;28;20434;-78
2023/08/04 08:06:38;;;;;;;6.88;1.70;;;18.60;99.90;;;;;;4966863;28;20501;-78
2023/08/04 08:09:04;;;;;;;5.60;1.90;;;18.40;99.90;;;;;;4980746;28;20506;-78
2023/08/04 08:11:29;;;;;;;5.45;1.90;;;18.40;99.90;;;;;;4971653;28;20038;-77
2023/08/04 08:13:55;;;;;;;6.97;2.00;;;18.30;99.90;;;;;;4973553;28;20038;-79
2023/08/04 08:16:21;;;;;;;5.28;1.75;;;18.00;99.90;;;;;;4972792;28;20038;-78
2023/08/04 08:18:46;;;;;;;6.30;2.00;;;17.80;99.90;;;;;;4954585;28;20506;-81
2023/08/04 08:21:13;;;;;;;5.05;1.80;;;17.70;99.90;;;;;;4973138;28;20046;-78
2023/08/04 08:23:38;;;;;;;4.80;2.10;;;17.70;99.90;;;;;;4985198;28;20034;-78
2023/08/04 08:26:04;;;;;;;5.07;1.83;;;17.70;99.90;;;;;;4970972;28;20041;-79
2023/08/04 08:28:31;;;;;;;5.78;1.70;;;17.70;99.90;;;;;;4973074;28;20502;-79
2023/08/04 08:30:56;;;;;;;6.78;1.88;;;17.70;99.90;;;;;;4981287;28;20049;-79
2023/08/04 08:33:22;;;;;;;5.18;1.55;;;17.90;99.90;;;;;;4976804;28;20034;-79
2023/08/04 08:35:48;;;;;;;5.57;1.60;;;18.00;99.90;;;;;;4972927;28;20050;-78
2023/08/04 08:38:13;;;;;;;6.03;1.75;;;18.20;99.90;;;;;;4964506;28;20042;-79
2023/08/04 08:40:39;;;;;;;6.35;1.60;;;18.40;99.90;;;;;;4952542;28;20060;-78
2023/08/04 08:43:04;;;;;;;4.18;1.63;;;18.80;99.90;;;;;;4976447;28;20054;-78
2023/08/04 08:45:32;;;;;;;8.55;1.83;;;19.00;99.90;;;;;;4977280;28;20405;-79
2023/08/04 08:47:57;;;;;;;4.40;1.90;;;18.90;99.90;;;;;;4976967;28;20459;-78
2023/08/04 08:50:25;;;;;;;4.53;2.05;;;18.60;99.90;;;;;;4981505;28;20073;-79
2023/08/04 08:53:20;;;;;;;4.50;1.33;;;18.10;99.90;;;;;;4976151;28;20129;-78
2023/08/04 08:55:47;;;;;;;4.65;1.90;;;17.80;99.90;;;;;;4990705;28;20569;-78
2023/08/04 08:58:13;;;;;;;4.65;1.45;;;17.70;99.90;;;;;;4973655;28;20133;-78
2023/08/04 09:00:39;;;;;;;3.20;1.40;;;17.70;99.90;;;;;;4971414;28;20046;-78
2023/08/04 09:03:05;;;;;;;4.35;1.38;;;17.70;99.90;;;;;;4977009;28;20035;-78
2023/08/04 09:05:32;;;;;;;4.47;1.52;;;17.70;99.90;;;;;;4973667;28;20486;-78
2023/08/04 09:07:58;;;;;;;4.97;1.80;;;17.70;99.90;;;;;;4976508;28;20092;-79
2023/08/04 09:10:23;;;;;;;4.05;1.70;;;17.70;99.90;;;;;;4974408;28;20038;-78
2023/08/04 09:12:51;;;;;;;4.78;1.80;;;17.70;99.90;;;;;;4985717;28;20038;-77
2023/08/04 09:15:17;;;;;;;9.68;2.28;;;17.80;99.90;;;;;;4988088;28;20088;-78
2023/08/04 09:17:44;;;;;;;6.93;1.75;;;17.80;99.90;;;;;;4985451;28;20405;-77
2023/08/04 09:20:27;;;;;;;6.13;1.70;;;17.80;99.90;;;;;;4984559;28;20378;-78
2023/08/04 09:22:53;;;;;;;7.57;2.00;;;17.80;99.90;;;;;;4982598;28;20061;-78
2023/08/04 09:25:19;;;;;;;6.63;2.22;;;17.80;99.90;;;;;;4984136;28;20042;-78
2023/08/04 09:27:49;;;;;;;5.30;1.85;;;17.90;99.90;;;;;;4988182;28;20033;-79
2023/08/04 09:30:16;;;;;;;6.55;1.90;;;18.00;99.90;;;;;;4994344;28;20298;-78
2023/08/04 09:32:50;;;;;;;6.35;1.85;;;18.10;99.90;;;;;;4989319;28;20049;-79
2023/08/04 09:35:16;;;;;;;8.68;2.33;;;18.20;99.90;;;;;;4987545;28;20046;-78
2023/08/04 09:37:42;;;;;;;7.60;2.10;;;18.40;99.90;;;;;;4986944;28;20038;-78
2023/08/04 09:40:19;;;;;;;5.38;1.92;;;18.50;99.90;;;;;;4990046;28;20042;-78
2023/08/04 09:42:46;;;;;;;7.53;1.92;;;18.60;99.90;;;;;;4996606;28;20042;-78
2023/08/04 09:45:14;;;;;;;7.90;2.00;;;18.70;99.90;;;;;;4988039;28;20042;-79
2023/08/04 09:47:39;;;;;;;7.53;2.30;;;18.80;99.90;;;;;;4984467;28;20082;-79
2023/08/04 09:50:11;;;;;;;6.97;2.08;;;18.90;99.90;;;;;;4985136;28;20438;-78
2023/08/04 09:52:37;;;;;;;6.90;2.00;;;18.90;99.90;;;;;;4983062;28;20033;-79
2023/08/04 09:55:02;;;;;;;5.95;1.80;;;19.00;99.90;;;;;;4974337;28;20049;-79
2023/08/04 09:57:28;;;;;;;10.80;2.10;;;18.90;99.90;;;;;;4993323;28;20057;-79
2023/08/04 09:59:54;;;;;;;5.40;1.90;;;18.80;99.90;;;;;;4993534;28;20049;-79
2023/08/04 10:02:20;;;;;;;6.38;2.10;;;18.70;99.90;;;;;;4991589;28;20038;-79
2023/08/04 10:04:50;;;;;;;5.82;2.30;;;18.60;99.90;;;;;;4989353;28;20038;-79
2023/08/04 10:07:17;;;;;;;6.72;2.10;;;18.60;99.90;;;;;;4994763;28;20045;-78
2023/08/04 10:09:44;;;;;;;6.25;2.10;;;18.60;99.90;;;;;;4987381;28;20030;-78
2023/08/04 10:12:11;;;;;;;9.95;2.35;;;18.70;99.90;;;;;;4992936;28;20052;-78
2023/08/04 10:14:37;;;;;;;6.50;2.00;;;18.90;99.90;;;;;;4990729;28;20038;-79
2023/08/04 10:17:03;;;;;;;10.25;2.15;;;19.20;99.90;;;;;;4989355;28;20129;-78
2023/08/04 10:19:28;;;;;;;6.07;2.42;;;19.60;99.90;;;;;;4993544;28;20117;-79
2023/08/04 10:22:03;;;;;;;4.63;1.42;;;19.80;99.90;;;;;;4996258;28;20129;-80
2023/08/04 10:24:29;;;;;;;3.53;1.20;;;19.70;99.90;;;;;;4988745;28;20121;-80
2023/08/04 10:26:54;;;;;;;3.80;1.40;;;19.50;99.90;;;;;;4992732;28;20061;-79
2023/08/04 10:29:29;;;;;;;2.78;1.10;;;19.60;99.90;;;;;;4993446;28;20041;-79
2023/08/04 10:31:57;;;;;;;4.53;1.33;;;19.80;99.90;;;;;;4988676;28;20104;-79
2023/08/04 10:34:32;;;;;;;3.85;1.35;;;19.90;99.90;;;;;;4995759;28;20125;-79
2023/08/04 10:37:04;;;;;;;3.90;0.98;;;19.80;99.90;;;;;;4990863;28;20097;-78
2023/08/04 10:39:40;;;;;;;5.68;1.42;;;20.00;99.90;;;;;;4990439;28;20035;-78
2023/08/04 10:42:09;;;;;;;4.50;1.48;;;20.00;99.90;;;;;;4982313;28;20042;-79
2023/08/04 10:44:54;;;;;;;4.13;1.10;;;20.00;99.90;;;;;;4978380;28;20092;-79
2023/08/04 10:47:45;;;;;;;4.65;1.20;;;19.90;99.90;;;;;;4979280;28;20520;-80
2023/08/04 10:50:11;;;;;;;4.18;1.08;;;20.10;99.90;;;;;;4989540;28;20074;-78
2023/08/04 10:52:38;;;;;;;3.20;0.90;;;20.00;99.90;;;;;;4984845;28;20092;-79
2023/08/04 10:55:06;;;;;;;4.30;1.52;;;19.90;99.90;;;;;;4997467;28;20066;-80
2023/08/04 10:57:33;;;;;;;5.20;1.35;;;19.80;99.90;;;;;;4987666;28;20425;-78
2023/08/04 11:00:03;;;;;;;3.28;1.20;;;19.80;99.90;;;;;;4992459;28;20034;-81
2023/08/04 11:02:29;;;;;;;6.00;1.20;;;19.80;99.90;;;;;;4991655;28;20472;-79
2023/08/04 11:04:55;;;;;;;3.85;1.05;;;19.80;99.90;;;;;;4975466;28;20039;-80
2023/08/04 11:07:23;;;;;;;3.60;1.05;;;19.90;99.90;;;;;;4962470;28;20030;-80
2023/08/04 11:09:50;;;;;;;3.30;1.02;;;20.10;99.90;;;;;;4978828;28;20105;-80
2023/08/04 11:12:16;;;;;;;4.28;1.35;;;20.20;99.90;;;;;;4970039;28;20058;-80
2023/08/04 11:14:43;;;;;;;3.60;0.98;;;20.40;99.90;;;;;;4986330;28;20052;-81
2023/08/04 11:17:14;;;;;;;5.82;1.30;;;20.70;99.90;;;;;;4975031;28;20076;-80
2023/08/04 11:19:41;;;;;;;4.80;1.10;;;20.70;99.90;;;;;;4965791;28;20047;-81
2023/08/04 11:22:13;;;;;;;5.45;1.20;;;20.50;99.90;;;;;;4970846;28;20046;-81
2023/08/04 11:24:39;;;;;;;4.07;1.50;;;20.30;99.90;;;;;;4974479;28;20073;-78
2023/08/04 11:27:05;;;;;;;3.35;1.30;;;20.10;99.90;;;;;;4972491;28;20062;-81
2023/08/04 11:29:31;;;;;;;3.13;1.38;;;19.90;99.90;;;;;;4984611;28;20039;-80
2023/08/04 11:31:57;;;;;;;3.78;1.23;;;19.70;99.90;;;;;;4991296;28;20069;-80
2023/08/04 11:34:22;;;;;;;2.85;1.10;;;19.60;99.90;;;;;;4986707;28;20077;-81
2023/08/04 11:36:49;;;;;;;3.38;1.20;;;19.60;99.90;;;;;;4981606;28;20052;-81
2023/08/04 11:39:15;;;;;;;3.20;1.00;;;19.70;99.90;;;;;;4982756;28;20130;-81
2023/08/04 11:41:42;;;;;;;2.78;1.05;;;20.10;99.90;;;;;;4974242;28;20128;-80
2023/08/04 11:44:09;;;;;;;4.85;1.15;;;20.30;99.90;;;;;;4978637;28;20048;-80
2023/08/04 11:46:35;;;;;;;2.30;0.90;;;20.50;99.90;;;;;;4972201;28;20043;-80
2023/08/04 11:49:07;;;;;;;4.00;0.98;;;20.40;99.90;;;;;;4976675;28;20030;-80
2023/08/04 11:51:33;;;;;;;3.07;0.97;;;20.40;99.90;;;;;;4994270;28;20062;-81
2023/08/04 11:53:59;;;;;;;2.22;1.10;;;20.40;99.90;;;;;;4976872;28;20041;-81
2023/08/04 11:56:24;;;;;;;3.13;1.10;;;20.50;99.90;;;;;;4993316;28;20457;-79
2023/08/04 11:58:55;;;;;;;2.90;1.10;;;20.30;99.90;;;;;;4976432;28;20129;-78
2023/08/04 12:01:30;;;;;;;3.78;1.33;;;20.30;99.90;;;;;;4975942;28;20038;-81
2023/08/04 12:03:56;;;;;;;3.33;1.05;;;20.30;99.90;;;;;;4976476;28;20379;-79
2023/08/04 12:06:23;;;;;;;6.70;1.48;;;20.40;99.90;;;;;;4960998;28;20050;-79
2023/08/04 12:08:58;;;;;;;3.78;1.13;;;20.60;99.90;;;;;;4976113;28;20085;-80
2023/08/04 12:11:25;;;;;;;6.22;1.98;;;20.60;99.90;;;;;;4976150;28;20042;-80
2023/08/04 12:13:51;;;;;;;5.88;1.35;;;20.50;99.90;;;;;;4977344;28;20069;-81
2023/08/04 12:16:17;;;;;;;6.15;1.55;;;20.30;99.90;;;;;;4975565;28;20144;-81
2023/08/04 12:18:44;;;;;;;5.93;1.60;;;20.00;99.90;;;;;;4977608;28;20502;-81
2023/08/04 12:21:10;;;;;;;4.63;1.60;;;19.90;99.90;;;;;;4976695;28;20149;-82
2023/08/04 12:23:37;;;;;;;6.68;1.38;;;19.80;99.90;;;;;;4976912;28;20038;-80
2023/08/04 12:26:03;;;;;;;3.92;1.40;;;19.80;99.90;;;;;;4977059;28;20042;-81
2023/08/04 12:28:29;;;;;;;4.40;1.58;;;19.90;99.90;;;;;;4976878;28;20093;-80
2023/08/04 12:30:54;;;;;;;7.55;1.45;;;19.90;99.90;;;;;;4960626;28;20048;-79
2023/08/04 12:33:20;;;;;;;5.15;1.33;;;20.10;99.90;;;;;;4980163;28;20044;-80
2023/08/04 12:35:45;;;;;;;2.88;1.20;;;20.10;99.90;;;;;;4962062;28;20097;-81
2023/08/04 12:38:12;;;;;;;2.28;0.98;;;20.20;99.90;;;;;;4998269;28;20042;-80
2023/08/04 12:40:38;;;;;;;5.35;1.05;;;20.30;99.90;;;;;;4977082;28;20038;-81
2023/08/04 12:43:04;;;;;;;2.83;1.10;;;20.40;99.90;;;;;;4977671;28;20046;-79